sensor_id;sensor_type;location;lat;lon;timestamp;temperature;humidity
13464;DHT22;6804;48.774;9.174;2022-08-16T00:01:39;22.00;93.70
13464;DHT22;6804;48.774;9.174;2022-08-16T00:04:07;22.00;93.70
13464;DHT22;6804;48.774;9.174;2022-08-16T00:06:34;21.90;93.70
13464;DHT22;6804;48.774;9.174;2022-08-16T00:09:04;21.90;93.80
13464;DHT22;6804;48.774;9.174;2022-08-16T00:11:33;21.90;94.10
13464;DHT22;6804;48.774;9.174;2022-08-16T00:14:04;21.90;94.10
13464;DHT22;6804;48.774;9.174;2022-08-16T00:16:35;21.90;94.10
13464;DHT22;6804;48.774;9.174;2022-08-16T00:19:03;21.80;94.10
13464;DHT22;6804;48.774;9.174;2022-08-16T00:21:30;21.90;94.10
13464;DHT22;6804;48.774;9.174;2022-08-16T00:24:00;21.90;94.10
13464;DHT22;6804;48.774;9.174;2022-08-16T00:26:28;21.90;94.10
13464;DHT22;6804;48.774;9.174;2022-08-16T00:28:59;21.80;94.10
13464;DHT22;6804;48.774;9.174;2022-08-16T00:31:28;21.80;94.30
13464;DHT22;6804;48.774;9.174;2022-08-16T00:33:55;21.80;94.50
13464;DHT22;6804;48.774;9.174;2022-08-16T00:36:22;21.80;94.60
13464;DHT22;6804;48.774;9.174;2022-08-16T00:38:52;21.80;94.70
13464;DHT22;6804;48.774;9.174;2022-08-16T00:41:26;21.80;94.80
13464;DHT22;6804;48.774;9.174;2022-08-16T00:43:58;21.80;94.90
13464;DHT22;6804;48.774;9.174;2022-08-16T00:46:30;21.80;95.00
13464;DHT22;6804;48.774;9.174;2022-08-16T00:49:02;21.80;95.10
13464;DHT22;6804;48.774;9.174;2022-08-16T00:51:32;21.70;95.20
13464;DHT22;6804;48.774;9.174;2022-08-16T00:54:07;21.70;95.20
13464;DHT22;6804;48.774;9.174;2022-08-16T00:56:37;21.80;95.30
13464;DHT22;6804;48.774;9.174;2022-08-16T00:59:10;21.70;95.30
13464;DHT22;6804;48.774;9.174;2022-08-16T01:01:39;21.70;95.40
13464;DHT22;6804;48.774;9.174;2022-08-16T01:04:09;21.70;95.50
13464;DHT22;6804;48.774;9.174;2022-08-16T01:06:37;21.60;95.70
13464;DHT22;6804;48.774;9.174;2022-08-16T01:09:06;21.70;95.90
13464;DHT22;6804;48.774;9.174;2022-08-16T01:11:35;21.70;96.00
13464;DHT22;6804;48.774;9.174;2022-08-16T01:14:10;21.60;96.00
13464;DHT22;6804;48.774;9.174;2022-08-16T01:16:40;21.60;96.20
13464;DHT22;6804;48.774;9.174;2022-08-16T01:19:16;21.60;96.40
13464;DHT22;6804;48.774;9.174;2022-08-16T01:21:59;21.60;96.60
13464;DHT22;6804;48.774;9.174;2022-08-16T01:24:41;21.50;96.90
13464;DHT22;6804;48.774;9.174;2022-08-16T01:27:13;21.50;97.20
13464;DHT22;6804;48.774;9.174;2022-08-16T01:29:46;21.50;97.50
13464;DHT22;6804;48.774;9.174;2022-08-16T01:32:19;21.50;97.70
13464;DHT22;6804;48.774;9.174;2022-08-16T01:34:47;21.50;98.00
13464;DHT22;6804;48.774;9.174;2022-08-16T01:37:14;21.50;98.10
13464;DHT22;6804;48.774;9.174;2022-08-16T01:39:43;21.50;98.10
13464;DHT22;6804;48.774;9.174;2022-08-16T01:42:16;21.50;98.20
13464;DHT22;6804;48.774;9.174;2022-08-16T01:44:44;21.50;98.30
13464;DHT22;6804;48.774;9.174;2022-08-16T01:47:14;21.60;98.30
13464;DHT22;6804;48.774;9.174;2022-08-16T01:49:42;21.50;98.70
13464;DHT22;6804;48.774;9.174;2022-08-16T01:52:17;21.50;98.80
13464;DHT22;6804;48.774;9.174;2022-08-16T01:54:49;21.50;98.90
13464;DHT22;6804;48.774;9.174;2022-08-16T01:57:19;21.50;99.00
13464;DHT22;6804;48.774;9.174;2022-08-16T01:59:49;21.50;99.00
13464;DHT22;6804;48.774;9.174;2022-08-16T02:02:16;21.50;99.20
13464;DHT22;6804;48.774;9.174;2022-08-16T02:04:44;21.50;99.20
13464;DHT22;6804;48.774;9.174;2022-08-16T02:07:11;21.50;99.30
13464;DHT22;6804;48.774;9.174;2022-08-16T02:09:48;21.50;99.40
13464;DHT22;6804;48.774;9.174;2022-08-16T02:12:18;21.50;99.60
13464;DHT22;6804;48.774;9.174;2022-08-16T02:14:46;21.50;99.80
13464;DHT22;6804;48.774;9.174;2022-08-16T02:17:13;21.50;99.90
13464;DHT22;6804;48.774;9.174;2022-08-16T02:19:44;21.50;99.90
13464;DHT22;6804;48.774;9.174;2022-08-16T02:22:22;21.50;99.90
13464;DHT22;6804;48.774;9.174;2022-08-16T02:24:51;21.50;99.90
13464;DHT22;6804;48.774;9.174;2022-08-16T02:27:18;21.50;99.90
13464;DHT22;6804;48.774;9.174;2022-08-16T02:29:45;21.50;99.90
13464;DHT22;6804;48.774;9.174;2022-08-16T02:32:15;21.50;99.90
13464;DHT22;6804;48.774;9.174;2022-08-16T02:34:43;21.50;99.90
13464;DHT22;6804;48.774;9.174;2022-08-16T02:37:12;21.40;99.90
13464;DHT22;6804;48.774;9.174;2022-08-16T02:39:50;21.40;99.90
13464;DHT22;6804;48.774;9.174;2022-08-16T02:42:17;21.40;99.90
13464;DHT22;6804;48.774;9.174;2022-08-16T02:44:44;21.40;99.90
13464;DHT22;6804;48.774;9.174;2022-08-16T02:47:14;21.40;99.90
13464;DHT22;6804;48.774;9.174;2022-08-16T02:49:42;21.40;99.90
13464;DHT22;6804;48.774;9.174;2022-08-16T02:52:09;21.40;99.90
13464;DHT22;6804;48.774;9.174;2022-08-16T02:54:40;21.40;99.90
13464;DHT22;6804;48.774;9.174;2022-08-16T02:57:11;21.50;99.90
13464;DHT22;6804;48.774;9.174;2022-08-16T02:59:38;21.40;99.90
13464;DHT22;6804;48.774;9.174;2022-08-16T03:02:07;21.50;99.90
13464;DHT22;6804;48.774;9.174;2022-08-16T03:04:35;21.40;99.90
13464;DHT22;6804;48.774;9.174;2022-08-16T03:07:03;21.40;99.90
13464;DHT22;6804;48.774;9.174;2022-08-16T03:09:32;21.40;99.90
13464;DHT22;6804;48.774;9.174;2022-08-16T03:11:59;21.50;99.90
13464;DHT22;6804;48.774;9.174;2022-08-16T03:14:32;21.50;99.90
13464;DHT22;6804;48.774;9.174;2022-08-16T03:16:59;21.40;99.90
13464;DHT22;6804;48.774;9.174;2022-08-16T03:19:27;21.40;99.90
13464;DHT22;6804;48.774;9.174;2022-08-16T03:21:55;21.50;99.90
13464;DHT22;6804;48.774;9.174;2022-08-16T03:24:22;21.40;99.90
13464;DHT22;6804;48.774;9.174;2022-08-16T03:26:50;21.40;99.90
13464;DHT22;6804;48.774;9.174;2022-08-16T03:29:17;21.40;99.90
13464;DHT22;6804;48.774;9.174;2022-08-16T03:31:48;21.50;99.90
13464;DHT22;6804;48.774;9.174;2022-08-16T03:34:16;21.40;99.90
13464;DHT22;6804;48.774;9.174;2022-08-16T03:36:43;21.50;99.90
13464;DHT22;6804;48.774;9.174;2022-08-16T03:39:11;21.40;99.90
13464;DHT22;6804;48.774;9.174;2022-08-16T03:41:39;21.50;99.90
13464;DHT22;6804;48.774;9.174;2022-08-16T03:44:07;21.40;99.90
13464;DHT22;6804;48.774;9.174;2022-08-16T03:46:39;21.40;99.90
13464;DHT22;6804;48.774;9.174;2022-08-16T03:49:09;21.40;99.90
13464;DHT22;6804;48.774;9.174;2022-08-16T03:51:41;21.30;99.90
13464;DHT22;6804;48.774;9.174;2022-08-16T03:54:11;21.30;99.90
13464;DHT22;6804;48.774;9.174;2022-08-16T03:56:41;21.30;99.90
13464;DHT22;6804;48.774;9.174;2022-08-16T03:59:11;21.30;99.90
13464;DHT22;6804;48.774;9.174;2022-08-16T04:01:39;21.20;99.90
13464;DHT22;6804;48.774;9.174;2022-08-16T04:04:06;21.20;99.90
13464;DHT22;6804;48.774;9.174;2022-08-16T04:06:35;21.20;99.90
13464;DHT22;6804;48.774;9.174;2022-08-16T04:09:02;21.20;99.90
13464;DHT22;6804;48.774;9.174;2022-08-16T04:11:32;21.10;99.90
13464;DHT22;6804;48.774;9.174;2022-08-16T04:13:59;21.10;99.90
13464;DHT22;6804;48.774;9.174;2022-08-16T04:16:29;21.10;99.90
13464;DHT22;6804;48.774;9.174;2022-08-16T04:18:57;21.10;99.90
13464;DHT22;6804;48.774;9.174;2022-08-16T04:21:31;21.00;99.90
13464;DHT22;6804;48.774;9.174;2022-08-16T04:24:00;21.00;99.90
13464;DHT22;6804;48.774;9.174;2022-08-16T04:26:28;20.90;99.90
13464;DHT22;6804;48.774;9.174;2022-08-16T04:28:56;20.90;99.90
13464;DHT22;6804;48.774;9.174;2022-08-16T04:31:23;21.00;99.90
13464;DHT22;6804;48.774;9.174;2022-08-16T04:33:52;20.90;99.90
13464;DHT22;6804;48.774;9.174;2022-08-16T04:36:24;20.90;99.90
13464;DHT22;6804;48.774;9.174;2022-08-16T04:38:52;20.90;99.90
13464;DHT22;6804;48.774;9.174;2022-08-16T04:41:24;20.90;99.90
13464;DHT22;6804;48.774;9.174;2022-08-16T04:43:54;20.90;99.90
13464;DHT22;6804;48.774;9.174;2022-08-16T04:46:24;20.90;99.90
13464;DHT22;6804;48.774;9.174;2022-08-16T04:48:53;21.00;99.90
13464;DHT22;6804;48.774;9.174;2022-08-16T04:51:24;21.00;99.90
13464;DHT22;6804;48.774;9.174;2022-08-16T04:53:54;21.10;99.90
13464;DHT22;6804;48.774;9.174;2022-08-16T04:56:26;21.10;99.90
13464;DHT22;6804;48.774;9.174;2022-08-16T04:58:53;21.10;99.90
13464;DHT22;6804;48.774;9.174;2022-08-16T05:01:20;21.20;99.90
13464;DHT22;6804;48.774;9.174;2022-08-16T05:03:48;21.30;99.90
13464;DHT22;6804;48.774;9.174;2022-08-16T05:06:22;21.30;99.90
13464;DHT22;6804;48.774;9.174;2022-08-16T05:08:53;21.40;99.90
13464;DHT22;6804;48.774;9.174;2022-08-16T05:11:23;21.40;99.90
13464;DHT22;6804;48.774;9.174;2022-08-16T05:13:55;21.40;99.90
13464;DHT22;6804;48.774;9.174;2022-08-16T05:16:27;21.40;99.90
13464;DHT22;6804;48.774;9.174;2022-08-16T05:18:56;21.30;99.90
13464;DHT22;6804;48.774;9.174;2022-08-16T05:21:24;21.30;99.90
13464;DHT22;6804;48.774;9.174;2022-08-16T05:23:53;21.40;99.90
13464;DHT22;6804;48.774;9.174;2022-08-16T05:26:24;21.40;99.90
13464;DHT22;6804;48.774;9.174;2022-08-16T05:28:56;21.30;99.90
13464;DHT22;6804;48.774;9.174;2022-08-16T05:31:26;21.40;99.90
13464;DHT22;6804;48.774;9.174;2022-08-16T05:33:54;21.30;99.90
13464;DHT22;6804;48.774;9.174;2022-08-16T05:36:21;21.30;99.90
13464;DHT22;6804;48.774;9.174;2022-08-16T05:38:56;21.30;99.90
13464;DHT22;6804;48.774;9.174;2022-08-16T05:41:23;21.30;99.90
13464;DHT22;6804;48.774;9.174;2022-08-16T05:43:53;21.30;99.90
13464;DHT22;6804;48.774;9.174;2022-08-16T05:46:27;21.30;99.90
13464;DHT22;6804;48.774;9.174;2022-08-16T05:48:54;21.30;99.90
13464;DHT22;6804;48.774;9.174;2022-08-16T05:51:21;21.40;99.90
13464;DHT22;6804;48.774;9.174;2022-08-16T05:53:49;21.40;99.90
13464;DHT22;6804;48.774;9.174;2022-08-16T05:56:16;21.40;99.90
13464;DHT22;6804;48.774;9.174;2022-08-16T05:58:44;21.50;99.90
13464;DHT22;6804;48.774;9.174;2022-08-16T06:01:11;21.50;99.90
13464;DHT22;6804;48.774;9.174;2022-08-16T06:03:40;21.50;99.90
13464;DHT22;6804;48.774;9.174;2022-08-16T06:06:08;21.60;99.90
13464;DHT22;6804;48.774;9.174;2022-08-16T06:08:35;21.60;99.90
13464;DHT22;6804;48.774;9.174;2022-08-16T06:11:03;21.60;99.90
13464;DHT22;6804;48.774;9.174;2022-08-16T06:13:31;21.60;99.90
13464;DHT22;6804;48.774;9.174;2022-08-16T06:15:59;21.60;99.90
13464;DHT22;6804;48.774;9.174;2022-08-16T06:18:27;21.70;99.90
13464;DHT22;6804;48.774;9.174;2022-08-16T06:20:55;21.80;99.90
13464;DHT22;6804;48.774;9.174;2022-08-16T06:23:26;21.80;99.90
13464;DHT22;6804;48.774;9.174;2022-08-16T06:25:56;21.90;99.90
13464;DHT22;6804;48.774;9.174;2022-08-16T06:28:27;22.10;99.90
13464;DHT22;6804;48.774;9.174;2022-08-16T06:30:57;22.20;99.90
13464;DHT22;6804;48.774;9.174;2022-08-16T06:33:25;22.40;99.90
13464;DHT22;6804;48.774;9.174;2022-08-16T06:35:57;22.60;99.90
13464;DHT22;6804;48.774;9.174;2022-08-16T06:38:24;22.90;99.90
13464;DHT22;6804;48.774;9.174;2022-08-16T06:40:54;23.20;99.90
13464;DHT22;6804;48.774;9.174;2022-08-16T06:43:25;23.40;99.90
13464;DHT22;6804;48.774;9.174;2022-08-16T06:45:56;23.70;99.90
13464;DHT22;6804;48.774;9.174;2022-08-16T06:48:27;23.90;99.90
13464;DHT22;6804;48.774;9.174;2022-08-16T06:50:59;24.10;99.50
13464;DHT22;6804;48.774;9.174;2022-08-16T06:53:26;24.30;98.90
13464;DHT22;6804;48.774;9.174;2022-08-16T06:55:58;24.50;98.60
13464;DHT22;6804;48.774;9.174;2022-08-16T06:58:27;24.70;98.20
13464;DHT22;6804;48.774;9.174;2022-08-16T07:00:57;24.90;97.60
13464;DHT22;6804;48.774;9.174;2022-08-16T07:03:28;25.10;97.10
13464;DHT22;6804;48.774;9.174;2022-08-16T07:05:57;25.20;96.50
13464;DHT22;6804;48.774;9.174;2022-08-16T07:08:26;25.40;96.20
13464;DHT22;6804;48.774;9.174;2022-08-16T07:10:56;25.60;95.50
13464;DHT22;6804;48.774;9.174;2022-08-16T07:13:28;25.70;95.30
13464;DHT22;6804;48.774;9.174;2022-08-16T07:15:57;25.90;95.10
13464;DHT22;6804;48.774;9.174;2022-08-16T07:18:26;26.00;94.90
13464;DHT22;6804;48.774;9.174;2022-08-16T07:20:54;26.20;94.30
13464;DHT22;6804;48.774;9.174;2022-08-16T07:23:28;26.00;94.70
13464;DHT22;6804;48.774;9.174;2022-08-16T07:25:59;26.30;93.90
13464;DHT22;6804;48.774;9.174;2022-08-16T07:28:27;26.50;93.70
13464;DHT22;6804;48.774;9.174;2022-08-16T07:30:56;26.60;93.10
13464;DHT22;6804;48.774;9.174;2022-08-16T07:33:28;26.80;92.90
13464;DHT22;6804;48.774;9.174;2022-08-16T07:35:58;27.00;92.40
13464;DHT22;6804;48.774;9.174;2022-08-16T07:38:30;27.00;91.90
13464;DHT22;6804;48.774;9.174;2022-08-16T07:40:58;27.10;91.70
13464;DHT22;6804;48.774;9.174;2022-08-16T07:43:26;26.80;91.80
13464;DHT22;6804;48.774;9.174;2022-08-16T07:45:57;26.20;92.80
13464;DHT22;6804;48.774;9.174;2022-08-16T07:48:25;26.30;93.30
13464;DHT22;6804;48.774;9.174;2022-08-16T07:50:53;26.50;92.80
13464;DHT22;6804;48.774;9.174;2022-08-16T07:53:24;26.80;91.90
13464;DHT22;6804;48.774;9.174;2022-08-16T07:55:55;26.70;92.40
13464;DHT22;6804;48.774;9.174;2022-08-16T07:58:22;27.00;91.60
13464;DHT22;6804;48.774;9.174;2022-08-16T08:01:01;27.30;91.20
13464;DHT22;6804;48.774;9.174;2022-08-16T08:03:31;27.60;89.30
13464;DHT22;6804;48.774;9.174;2022-08-16T08:06:00;27.50;89.40
13464;DHT22;6804;48.774;9.174;2022-08-16T08:08:28;27.70;90.10
13464;DHT22;6804;48.774;9.174;2022-08-16T08:11:00;28.00;89.00
13464;DHT22;6804;48.774;9.174;2022-08-16T08:13:31;28.50;88.50
13464;DHT22;6804;48.774;9.174;2022-08-16T08:15:59;28.60;87.70
13464;DHT22;6804;48.774;9.174;2022-08-16T08:18:28;28.60;87.70
13464;DHT22;6804;48.774;9.174;2022-08-16T08:20:57;28.40;88.40
13464;DHT22;6804;48.774;9.174;2022-08-16T08:23:25;28.20;89.40
13464;DHT22;6804;48.774;9.174;2022-08-16T08:25:53;27.70;89.80
13464;DHT22;6804;48.774;9.174;2022-08-16T08:28:30;27.40;90.70
13464;DHT22;6804;48.774;9.174;2022-08-16T08:30:58;27.40;90.80
13464;DHT22;6804;48.774;9.174;2022-08-16T08:33:30;27.30;90.90
13464;DHT22;6804;48.774;9.174;2022-08-16T08:36:02;27.30;90.80
13464;DHT22;6804;48.774;9.174;2022-08-16T08:38:33;27.20;90.80
13464;DHT22;6804;48.774;9.174;2022-08-16T08:41:01;27.00;91.00
13464;DHT22;6804;48.774;9.174;2022-08-16T08:43:31;26.70;91.70
13464;DHT22;6804;48.774;9.174;2022-08-16T08:45:59;26.00;92.60
13464;DHT22;6804;48.774;9.174;2022-08-16T08:48:27;25.80;93.20
13464;DHT22;6804;48.774;9.174;2022-08-16T08:50:59;25.60;93.30
13464;DHT22;6804;48.774;9.174;2022-08-16T08:53:28;25.10;94.10
13464;DHT22;6804;48.774;9.174;2022-08-16T08:55:58;25.00;94.60
13464;DHT22;6804;48.774;9.174;2022-08-16T08:58:27;24.80;94.80
13464;DHT22;6804;48.774;9.174;2022-08-16T09:01:00;24.50;94.90
13464;DHT22;6804;48.774;9.174;2022-08-16T09:03:31;24.40;94.90
13464;DHT22;6804;48.774;9.174;2022-08-16T09:05:58;24.20;95.50
13464;DHT22;6804;48.774;9.174;2022-08-16T09:08:27;24.10;95.60
13464;DHT22;6804;48.774;9.174;2022-08-16T09:10:59;24.20;95.40
13464;DHT22;6804;48.774;9.174;2022-08-16T09:13:27;24.50;95.00
13464;DHT22;6804;48.774;9.174;2022-08-16T09:15:59;24.80;94.70
13464;DHT22;6804;48.774;9.174;2022-08-16T09:18:29;25.00;95.00
13464;DHT22;6804;48.774;9.174;2022-08-16T09:21:02;25.10;94.70
13464;DHT22;6804;48.774;9.174;2022-08-16T09:23:32;25.30;94.50
13464;DHT22;6804;48.774;9.174;2022-08-16T09:26:00;25.10;94.60
13464;DHT22;6804;48.774;9.174;2022-08-16T09:28:32;24.90;94.60
13464;DHT22;6804;48.774;9.174;2022-08-16T09:31:01;25.00;94.90
13464;DHT22;6804;48.774;9.174;2022-08-16T09:33:29;25.00;94.60
13464;DHT22;6804;48.774;9.174;2022-08-16T09:36:00;25.10;94.70
13464;DHT22;6804;48.774;9.174;2022-08-16T09:38:28;25.30;94.00
13464;DHT22;6804;48.774;9.174;2022-08-16T09:40:56;25.50;94.10
13464;DHT22;6804;48.774;9.174;2022-08-16T09:43:25;25.90;93.60
13464;DHT22;6804;48.774;9.174;2022-08-16T09:45:53;26.30;92.70
13464;DHT22;6804;48.774;9.174;2022-08-16T09:48:24;26.30;92.10
13464;DHT22;6804;48.774;9.174;2022-08-16T09:50:54;26.30;91.90
13464;DHT22;6804;48.774;9.174;2022-08-16T09:53:22;26.10;92.50
13464;DHT22;6804;48.774;9.174;2022-08-16T09:55:55;26.10;92.00
13464;DHT22;6804;48.774;9.174;2022-08-16T09:58:33;25.80;92.80
13464;DHT22;6804;48.774;9.174;2022-08-16T10:01:01;25.70;93.20
13464;DHT22;6804;48.774;9.174;2022-08-16T10:03:35;25.70;93.00
13464;DHT22;6804;48.774;9.174;2022-08-16T10:06:02;25.80;92.50
13464;DHT22;6804;48.774;9.174;2022-08-16T10:08:33;25.80;92.20
13464;DHT22;6804;48.774;9.174;2022-08-16T10:11:05;25.70;92.50
13464;DHT22;6804;48.774;9.174;2022-08-16T10:13:50;25.60;92.30
13464;DHT22;6804;48.774;9.174;2022-08-16T10:16:19;25.50;92.60
13464;DHT22;6804;48.774;9.174;2022-08-16T10:18:51;25.50;92.30
13464;DHT22;6804;48.774;9.174;2022-08-16T10:21:23;25.40;92.10
13464;DHT22;6804;48.774;9.174;2022-08-16T10:23:52;25.20;92.70
13464;DHT22;6804;48.774;9.174;2022-08-16T10:26:24;25.30;92.40
13464;DHT22;6804;48.774;9.174;2022-08-16T10:28:53;25.30;92.60
13464;DHT22;6804;48.774;9.174;2022-08-16T10:31:21;25.40;92.40
13464;DHT22;6804;48.774;9.174;2022-08-16T10:33:52;25.60;92.30
13464;DHT22;6804;48.774;9.174;2022-08-16T10:36:23;25.70;91.90
13464;DHT22;6804;48.774;9.174;2022-08-16T10:38:51;25.70;92.20
13464;DHT22;6804;48.774;9.174;2022-08-16T10:41:21;25.70;92.30
13464;DHT22;6804;48.774;9.174;2022-08-16T10:43:53;25.60;92.30
13464;DHT22;6804;48.774;9.174;2022-08-16T10:46:22;25.60;92.30
13464;DHT22;6804;48.774;9.174;2022-08-16T10:48:54;25.60;92.40
13464;DHT22;6804;48.774;9.174;2022-08-16T10:51:24;25.80;92.30
13464;DHT22;6804;48.774;9.174;2022-08-16T10:53:53;25.90;92.40
13464;DHT22;6804;48.774;9.174;2022-08-16T10:56:24;26.00;91.90
13464;DHT22;6804;48.774;9.174;2022-08-16T10:58:53;26.20;91.30
13464;DHT22;6804;48.774;9.174;2022-08-16T11:01:23;26.40;91.40
13464;DHT22;6804;48.774;9.174;2022-08-16T11:03:55;26.50;90.80
13464;DHT22;6804;48.774;9.174;2022-08-16T11:06:27;26.50;90.80
13464;DHT22;6804;48.774;9.174;2022-08-16T11:08:56;26.70;90.80
13464;DHT22;6804;48.774;9.174;2022-08-16T11:11:26;26.90;90.40
13464;DHT22;6804;48.774;9.174;2022-08-16T11:13:54;27.20;90.00
13464;DHT22;6804;48.774;9.174;2022-08-16T11:16:25;27.40;88.40
13464;DHT22;6804;48.774;9.174;2022-08-16T11:18:58;27.40;87.10
13464;DHT22;6804;48.774;9.174;2022-08-16T11:21:34;27.50;88.10
13464;DHT22;6804;48.774;9.174;2022-08-16T11:24:04;27.90;87.30
13464;DHT22;6804;48.774;9.174;2022-08-16T11:26:32;28.20;86.00
13464;DHT22;6804;48.774;9.174;2022-08-16T11:29:04;28.10;84.30
13464;DHT22;6804;48.774;9.174;2022-08-16T11:31:33;28.10;84.50
13464;DHT22;6804;48.774;9.174;2022-08-16T11:34:06;27.90;84.70
13464;DHT22;6804;48.774;9.174;2022-08-16T11:36:38;27.60;85.40
13464;DHT22;6804;48.774;9.174;2022-08-16T11:39:06;27.30;84.50
13464;DHT22;6804;48.774;9.174;2022-08-16T11:41:34;27.20;85.20
13464;DHT22;6804;48.774;9.174;2022-08-16T11:44:04;27.30;85.50
13464;DHT22;6804;48.774;9.174;2022-08-16T11:46:35;27.50;85.30
13464;DHT22;6804;48.774;9.174;2022-08-16T11:49:05;27.70;83.70
13464;DHT22;6804;48.774;9.174;2022-08-16T11:51:33;27.60;84.00
13464;DHT22;6804;48.774;9.174;2022-08-16T11:54:02;27.60;84.10
13464;DHT22;6804;48.774;9.174;2022-08-16T11:56:36;27.30;84.40
13464;DHT22;6804;48.774;9.174;2022-08-16T11:59:05;27.20;85.20
13464;DHT22;6804;48.774;9.174;2022-08-16T12:01:34;27.20;84.60
13464;DHT22;6804;48.774;9.174;2022-08-16T12:04:06;27.10;84.60
13464;DHT22;6804;48.774;9.174;2022-08-16T12:06:34;26.90;85.40
13464;DHT22;6804;48.774;9.174;2022-08-16T12:09:03;27.10;85.30
13464;DHT22;6804;48.774;9.174;2022-08-16T12:11:32;27.40;85.10
13464;DHT22;6804;48.774;9.174;2022-08-16T12:14:02;27.80;84.00
13464;DHT22;6804;48.774;9.174;2022-08-16T12:16:35;28.20;82.40
13464;DHT22;6804;48.774;9.174;2022-08-16T12:19:05;28.50;80.80
13464;DHT22;6804;48.774;9.174;2022-08-16T12:21:37;28.60;80.30
13464;DHT22;6804;48.774;9.174;2022-08-16T12:24:06;28.90;80.00
13464;DHT22;6804;48.774;9.174;2022-08-16T12:26:36;29.10;79.00
13464;DHT22;6804;48.774;9.174;2022-08-16T12:29:06;29.40;77.40
13464;DHT22;6804;48.774;9.174;2022-08-16T12:31:34;29.60;77.30
13464;DHT22;6804;48.774;9.174;2022-08-16T12:34:02;29.90;76.60
13464;DHT22;6804;48.774;9.174;2022-08-16T12:36:33;30.20;75.60
13464;DHT22;6804;48.774;9.174;2022-08-16T12:39:09;30.30;73.60
13464;DHT22;6804;48.774;9.174;2022-08-16T12:41:37;30.40;73.40
13464;DHT22;6804;48.774;9.174;2022-08-16T12:44:05;30.40;73.50
13464;DHT22;6804;48.774;9.174;2022-08-16T12:46:35;30.50;72.30
13464;DHT22;6804;48.774;9.174;2022-08-16T12:49:04;30.50;71.90
13464;DHT22;6804;48.774;9.174;2022-08-16T12:51:36;30.50;72.40
13464;DHT22;6804;48.774;9.174;2022-08-16T12:54:08;30.50;71.60
13464;DHT22;6804;48.774;9.174;2022-08-16T12:56:37;30.30;71.30
13464;DHT22;6804;48.774;9.174;2022-08-16T12:59:09;29.80;72.80
13464;DHT22;6804;48.774;9.174;2022-08-16T13:01:38;29.40;73.60
13464;DHT22;6804;48.774;9.174;2022-08-16T13:04:07;29.30;74.00
13464;DHT22;6804;48.774;9.174;2022-08-16T13:06:38;29.40;73.70
13464;DHT22;6804;48.774;9.174;2022-08-16T13:09:10;29.60;73.30
13464;DHT22;6804;48.774;9.174;2022-08-16T13:11:56;29.80;72.40
13464;DHT22;6804;48.774;9.174;2022-08-16T13:14:32;29.80;72.60
13464;DHT22;6804;48.774;9.174;2022-08-16T13:17:02;29.80;72.20
13464;DHT22;6804;48.774;9.174;2022-08-16T13:19:34;29.80;71.70
13464;DHT22;6804;48.774;9.174;2022-08-16T13:22:02;30.00;71.90
13464;DHT22;6804;48.774;9.174;2022-08-16T13:24:33;30.20;71.40
13464;DHT22;6804;48.774;9.174;2022-08-16T13:27:01;30.30;70.40
13464;DHT22;6804;48.774;9.174;2022-08-16T13:29:29;30.40;70.10
13464;DHT22;6804;48.774;9.174;2022-08-16T13:31:57;30.30;69.80
13464;DHT22;6804;48.774;9.174;2022-08-16T13:34:27;30.30;70.30
13464;DHT22;6804;48.774;9.174;2022-08-16T13:36:57;30.40;70.00
13464;DHT22;6804;48.774;9.174;2022-08-16T13:39:28;30.50;70.50
13464;DHT22;6804;48.774;9.174;2022-08-16T13:42:00;30.50;69.20
13464;DHT22;6804;48.774;9.174;2022-08-16T13:44:30;30.30;68.70
13464;DHT22;6804;48.774;9.174;2022-08-16T13:46:58;30.00;68.60
13464;DHT22;6804;48.774;9.174;2022-08-16T13:49:29;29.90;69.50
13464;DHT22;6804;48.774;9.174;2022-08-16T13:51:57;29.90;69.70
13464;DHT22;6804;48.774;9.174;2022-08-16T13:54:25;29.80;69.80
13464;DHT22;6804;48.774;9.174;2022-08-16T13:56:54;29.60;69.40
13464;DHT22;6804;48.774;9.174;2022-08-16T13:59:31;29.20;70.70
13464;DHT22;6804;48.774;9.174;2022-08-16T14:01:59;29.00;71.30
13464;DHT22;6804;48.774;9.174;2022-08-16T14:04:32;28.70;71.80
13464;DHT22;6804;48.774;9.174;2022-08-16T14:07:01;28.60;72.70
13464;DHT22;6804;48.774;9.174;2022-08-16T14:09:33;28.60;73.10
13464;DHT22;6804;48.774;9.174;2022-08-16T14:12:04;28.90;72.70
13464;DHT22;6804;48.774;9.174;2022-08-16T14:14:37;29.20;71.70
13464;DHT22;6804;48.774;9.174;2022-08-16T14:17:05;29.40;70.80
13464;DHT22;6804;48.774;9.174;2022-08-16T14:19:38;29.60;70.10
13464;DHT22;6804;48.774;9.174;2022-08-16T14:22:12;29.80;70.20
13464;DHT22;6804;48.774;9.174;2022-08-16T14:24:43;29.90;69.70
13464;DHT22;6804;48.774;9.174;2022-08-16T14:27:12;29.80;68.80
13464;DHT22;6804;48.774;9.174;2022-08-16T14:29:42;29.40;69.70
13464;DHT22;6804;48.774;9.174;2022-08-16T14:32:11;29.20;70.30
13464;DHT22;6804;48.774;9.174;2022-08-16T14:34:42;29.30;70.50
13464;DHT22;6804;48.774;9.174;2022-08-16T14:37:10;29.40;70.00
13464;DHT22;6804;48.774;9.174;2022-08-16T14:39:38;29.40;70.00
13464;DHT22;6804;48.774;9.174;2022-08-16T14:42:09;29.20;69.80
13464;DHT22;6804;48.774;9.174;2022-08-16T14:44:37;29.20;69.80
13464;DHT22;6804;48.774;9.174;2022-08-16T14:47:07;29.30;69.90
13464;DHT22;6804;48.774;9.174;2022-08-16T14:49:39;29.30;69.90
13464;DHT22;6804;48.774;9.174;2022-08-16T14:52:12;29.40;70.10
13464;DHT22;6804;48.774;9.174;2022-08-16T14:54:42;29.60;70.00
13464;DHT22;6804;48.774;9.174;2022-08-16T14:57:11;29.90;69.30
13464;DHT22;6804;48.774;9.174;2022-08-16T14:59:40;30.10;68.40
13464;DHT22;6804;48.774;9.174;2022-08-16T15:02:14;30.30;68.40
13464;DHT22;6804;48.774;9.174;2022-08-16T15:04:42;30.40;68.00
13464;DHT22;6804;48.774;9.174;2022-08-16T15:07:11;30.40;67.60
13464;DHT22;6804;48.774;9.174;2022-08-16T15:09:43;30.50;68.10
13464;DHT22;6804;48.774;9.174;2022-08-16T15:12:13;30.60;67.80
13464;DHT22;6804;48.774;9.174;2022-08-16T15:14:42;30.70;67.30
13464;DHT22;6804;48.774;9.174;2022-08-16T15:17:14;30.80;67.40
13464;DHT22;6804;48.774;9.174;2022-08-16T15:19:42;30.90;66.90
13464;DHT22;6804;48.774;9.174;2022-08-16T15:22:14;31.00;66.40
13464;DHT22;6804;48.774;9.174;2022-08-16T15:24:45;31.00;66.50
13464;DHT22;6804;48.774;9.174;2022-08-16T15:27:13;31.00;65.90
13464;DHT22;6804;48.774;9.174;2022-08-16T15:29:42;30.90;65.70
13464;DHT22;6804;48.774;9.174;2022-08-16T15:32:15;30.70;66.00
13464;DHT22;6804;48.774;9.174;2022-08-16T15:34:45;30.60;66.60
13464;DHT22;6804;48.774;9.174;2022-08-16T15:37:13;30.40;66.90
13464;DHT22;6804;48.774;9.174;2022-08-16T15:39:41;30.30;67.10
13464;DHT22;6804;48.774;9.174;2022-08-16T15:42:12;30.20;67.20
13464;DHT22;6804;48.774;9.174;2022-08-16T15:44:42;30.10;67.30
13464;DHT22;6804;48.774;9.174;2022-08-16T15:47:11;29.90;67.30
13464;DHT22;6804;48.774;9.174;2022-08-16T15:49:42;29.80;67.70
13464;DHT22;6804;48.774;9.174;2022-08-16T15:52:14;29.70;68.00
13464;DHT22;6804;48.774;9.174;2022-08-16T15:54:43;29.60;68.30
13464;DHT22;6804;48.774;9.174;2022-08-16T15:57:11;29.20;69.20
13464;DHT22;6804;48.774;9.174;2022-08-16T15:59:40;28.90;70.70
13464;DHT22;6804;48.774;9.174;2022-08-16T16:02:14;28.70;71.40